createdAt,value
2018-05-21T00:00:43.818Z,99.90
2018-05-21T00:03:11.264Z,99.90
2018-05-21T00:05:38.723Z,99.90
2018-05-21T00:08:06.169Z,99.90
2018-05-21T00:10:33.624Z,99.90
2018-05-21T00:13:01.082Z,99.90
2018-05-21T00:15:28.534Z,99.90
2018-05-21T00:17:55.981Z,99.90
2018-05-21T00:20:23.451Z,99.90
2018-05-21T00:22:50.910Z,99.90
2018-05-21T00:25:18.366Z,99.90
2018-05-21T00:27:45.887Z,99.90
2018-05-21T00:30:13.386Z,99.90
2018-05-21T00:32:40.842Z,99.90
2018-05-21T00:35:08.402Z,99.90
2018-05-21T00:37:35.854Z,99.90
2018-05-21T00:40:03.421Z,99.90
2018-05-21T00:42:30.878Z,99.90
2018-05-21T00:44:58.461Z,99.90
2018-05-21T00:47:25.901Z,99.90
2018-05-21T00:49:53.461Z,99.90
2018-05-21T00:52:20.903Z,99.90
2018-05-21T00:55:00.390Z,99.90
2018-05-21T00:57:28.612Z,99.90
2018-05-21T00:59:56.161Z,99.90
2018-05-21T01:02:23.617Z,99.90
2018-05-21T01:04:51.187Z,99.90
2018-05-21T01:07:19.401Z,99.90
2018-05-21T01:09:46.863Z,99.90
2018-05-21T01:12:14.405Z,99.90
2018-05-21T01:14:41.876Z,99.90
2018-05-21T01:17:09.358Z,99.90
2018-05-21T01:19:37.579Z,99.90
2018-05-21T01:22:05.078Z,99.90
2018-05-21T01:24:33.301Z,99.90
2018-05-21T01:27:00.786Z,99.90
2018-05-21T01:29:28.241Z,99.90
2018-05-21T01:31:55.730Z,99.90
2018-05-21T01:34:23.949Z,99.90
2018-05-21T01:36:51.421Z,99.90
2018-05-21T01:39:18.865Z,99.90
2018-05-21T01:41:46.361Z,99.90
2018-05-21T01:44:13.815Z,99.90
2018-05-21T01:46:41.284Z,99.90
2018-05-21T01:49:08.733Z,99.90
2018-05-21T01:51:36.289Z,99.90
2018-05-21T01:54:03.745Z,99.90
2018-05-21T01:56:31.227Z,99.90
2018-05-21T01:58:59.413Z,99.90
2018-05-21T02:01:26.860Z,99.90
2018-05-21T02:03:55.215Z,99.90
2018-05-21T02:06:22.669Z,99.90
2018-05-21T02:08:50.122Z,99.90
2018-05-21T02:11:17.567Z,99.90
2018-05-21T02:13:45.035Z,99.90
2018-05-21T02:16:12.499Z,99.90
2018-05-21T02:18:39.953Z,99.90
2018-05-21T02:21:07.410Z,99.90
2018-05-21T02:23:34.854Z,99.90
2018-05-21T02:26:02.327Z,99.90
2018-05-21T02:28:29.786Z,99.90
2018-05-21T02:30:57.244Z,99.90
2018-05-21T02:33:24.698Z,99.90
2018-05-21T02:35:52.143Z,99.90
2018-05-21T02:38:19.593Z,99.90
2018-05-21T02:40:47.065Z,99.90
2018-05-21T02:43:14.522Z,99.90
2018-05-21T02:45:41.957Z,99.90
2018-05-21T02:48:09.421Z,99.90
2018-05-21T02:50:36.876Z,99.90
2018-05-21T02:53:04.339Z,99.90
2018-05-21T02:55:31.794Z,99.90
2018-05-21T02:57:59.254Z,99.90
2018-05-21T03:00:26.706Z,99.90
2018-05-21T03:02:54.173Z,99.90
2018-05-21T03:05:21.621Z,99.90
2018-05-21T03:07:49.065Z,99.90
2018-05-21T03:10:16.515Z,99.90
2018-05-21T03:12:43.971Z,99.90
2018-05-21T03:15:11.411Z,99.90
2018-05-21T03:17:38.867Z,99.90
2018-05-21T03:20:06.299Z,99.90
2018-05-21T03:22:33.765Z,99.90
2018-05-21T03:25:01.975Z,99.90
2018-05-21T03:27:29.429Z,99.90
2018-05-21T03:29:56.875Z,99.90
2018-05-21T03:32:25.092Z,99.90
2018-05-21T03:34:52.537Z,99.90
2018-05-21T03:37:19.993Z,99.90
2018-05-21T03:39:47.442Z,99.90
2018-05-21T03:42:14.889Z,99.90
2018-05-21T03:44:42.325Z,99.90
2018-05-21T03:47:09.796Z,99.90
2018-05-21T03:49:37.226Z,99.90
2018-05-21T03:52:05.432Z,99.90
2018-05-21T03:54:32.891Z,99.90
2018-05-21T03:57:00.383Z,99.90
2018-05-21T03:59:39.836Z,99.90
2018-05-21T04:02:19.161Z,99.90
2018-05-21T04:04:46.613Z,99.90
2018-05-21T04:07:14.885Z,99.90
2018-05-21T04:09:42.342Z,99.90
2018-05-21T04:12:09.799Z,99.90
2018-05-21T04:14:37.256Z,99.90
2018-05-21T04:17:04.690Z,99.90
2018-05-21T04:19:32.148Z,99.90
2018-05-21T04:21:59.595Z,99.90
2018-05-21T04:24:27.053Z,99.90
2018-05-21T04:26:54.507Z,99.90
2018-05-21T04:29:21.953Z,99.90
2018-05-21T04:31:49.385Z,99.90
2018-05-21T04:34:16.842Z,99.90
2018-05-21T04:36:44.288Z,99.90
2018-05-21T04:39:11.742Z,99.90
2018-05-21T04:41:39.179Z,99.90
2018-05-21T04:44:06.637Z,99.90
2018-05-21T04:46:34.078Z,99.90
2018-05-21T04:49:01.530Z,99.90
2018-05-21T04:51:28.975Z,99.90
2018-05-21T04:53:56.434Z,99.90
2018-05-21T04:56:23.888Z,99.90
2018-05-21T04:58:51.352Z,99.90
2018-05-21T05:01:18.785Z,99.90
2018-05-21T05:03:47.019Z,99.90
2018-05-21T05:06:14.465Z,99.90
2018-05-21T05:08:41.921Z,99.90
2018-05-21T05:11:09.370Z,99.90
2018-05-21T05:13:36.835Z,99.90
2018-05-21T05:16:04.284Z,99.90
2018-05-21T05:18:31.738Z,99.90
2018-05-21T05:20:59.212Z,99.90
2018-05-21T05:23:26.648Z,99.90
2018-05-21T05:25:54.109Z,99.90
2018-05-21T05:28:21.581Z,99.90
2018-05-21T05:30:49.022Z,99.90
2018-05-21T05:33:16.490Z,99.90
2018-05-21T05:35:43.949Z,99.90
2018-05-21T05:38:11.392Z,99.90
2018-05-21T05:40:38.837Z,99.90
2018-05-21T05:43:06.288Z,99.90
2018-05-21T05:45:33.743Z,99.90
2018-05-21T05:48:01.186Z,99.90
2018-05-21T05:50:29.405Z,99.90
2018-05-21T05:52:56.842Z,99.90
2018-05-21T05:55:24.324Z,99.90
2018-05-21T05:57:51.775Z,99.90
2018-05-21T06:00:19.233Z,99.90
2018-05-21T06:02:46.676Z,99.90
2018-05-21T06:05:14.149Z,99.90
2018-05-21T06:07:41.609Z,99.90
2018-05-21T06:10:09.063Z,99.90
2018-05-21T06:12:36.521Z,99.90
2018-05-21T06:15:04.005Z,99.90
2018-05-21T06:17:31.452Z,99.90
2018-05-21T06:19:58.930Z,99.90
2018-05-21T06:22:26.372Z,99.90
2018-05-21T06:24:53.826Z,99.90
2018-05-21T06:27:21.269Z,99.90
2018-05-21T06:29:48.725Z,99.90
2018-05-21T06:32:16.179Z,99.90
2018-05-21T06:34:43.639Z,99.90
2018-05-21T06:37:11.099Z,99.90
2018-05-21T06:39:38.565Z,99.90
2018-05-21T06:42:06.009Z,99.90
2018-05-21T06:44:33.466Z,99.90
2018-05-21T06:47:00.939Z,99.90
2018-05-21T06:49:28.396Z,99.90
2018-05-21T06:51:55.854Z,99.50
2018-05-21T06:54:23.305Z,99.90
2018-05-21T06:56:50.777Z,99.20
2018-05-21T06:59:18.221Z,99.80
2018-05-21T07:01:45.678Z,99.00
2018-05-21T07:04:13.118Z,99.90
2018-05-21T07:06:40.595Z,98.80
2018-05-21T07:09:08.045Z,98.70
2018-05-21T07:11:35.506Z,97.70
2018-05-21T07:14:02.968Z,98.90
2018-05-21T07:16:30.417Z,96.90
2018-05-21T07:18:57.866Z,97.90
2018-05-21T07:21:25.338Z,97.50
2018-05-21T07:23:52.787Z,97.00
2018-05-21T07:26:20.997Z,97.20
2018-05-21T07:28:48.430Z,97.10
2018-05-21T07:31:15.882Z,95.50
2018-05-21T07:33:43.334Z,95.00
2018-05-21T07:36:10.792Z,95.30
2018-05-21T07:38:38.250Z,95.80
2018-05-21T07:41:05.703Z,94.50
2018-05-21T07:43:33.160Z,95.10
2018-05-21T07:46:00.606Z,94.20
2018-05-21T07:48:28.062Z,94.60
2018-05-21T07:50:55.537Z,92.20
2018-05-21T07:53:22.970Z,92.80
2018-05-21T07:55:50.434Z,92.30
2018-05-21T07:58:17.935Z,92.00
2018-05-21T08:00:45.349Z,90.90
2018-05-21T08:03:12.814Z,90.60
2018-05-21T08:05:40.275Z,90.80
2018-05-21T08:08:07.734Z,91.30
2018-05-21T08:10:35.186Z,86.90
2018-05-21T08:13:02.634Z,90.20
2018-05-21T08:15:30.117Z,91.30
2018-05-21T08:17:57.610Z,91.60
2018-05-21T08:20:25.822Z,84.60
2018-05-21T08:22:53.301Z,84.50
2018-05-21T08:25:20.750Z,82.70
2018-05-21T08:27:48.186Z,86.10
2018-05-21T08:30:15.653Z,86.40
2018-05-21T08:32:43.117Z,84.80
2018-05-21T08:35:10.571Z,85.20
2018-05-21T08:37:38.035Z,85.10
2018-05-21T08:40:06.254Z,81.60
2018-05-21T08:42:33.699Z,81.50
2018-05-21T08:45:01.145Z,83.40
2018-05-21T08:47:28.598Z,85.70
2018-05-21T08:49:56.041Z,84.60
2018-05-21T08:52:23.564Z,83.60
2018-05-21T08:54:50.934Z,86.60
2018-05-21T08:57:18.386Z,87.50
2018-05-21T08:59:45.829Z,88.30
2018-05-21T09:02:14.051Z,84.90
2018-05-21T09:04:41.535Z,84.90
2018-05-21T09:07:08.957Z,88.00
2018-05-21T09:09:36.399Z,85.10
2018-05-21T09:12:03.874Z,89.10
2018-05-21T09:14:31.330Z,90.80
2018-05-21T09:16:58.782Z,91.00
2018-05-21T09:19:26.221Z,92.00
2018-05-21T09:21:53.676Z,94.00
2018-05-21T09:24:21.108Z,91.60
2018-05-21T09:26:50.122Z,90.90
2018-05-21T09:29:17.574Z,91.20
2018-05-21T09:31:45.791Z,89.80
2018-05-21T09:34:13.242Z,89.60
2018-05-21T09:36:40.694Z,88.30
2018-05-21T09:39:08.125Z,90.60
2018-05-21T09:41:35.582Z,91.40
2018-05-21T09:44:03.028Z,91.10
2018-05-21T09:46:31.234Z,92.30
2018-05-21T09:48:58.694Z,92.30
2018-05-21T09:51:26.124Z,87.80
2018-05-21T09:53:53.590Z,90.50
2018-05-21T09:56:21.043Z,89.60
2018-05-21T09:58:48.502Z,84.10
2018-05-21T10:01:15.953Z,85.50
2018-05-21T10:03:43.414Z,84.00
2018-05-21T10:06:10.873Z,85.10
2018-05-21T10:08:38.322Z,83.90
2018-05-21T10:11:06.517Z,86.70
2018-05-21T10:13:33.977Z,86.80
2018-05-21T10:16:01.418Z,88.70
2018-05-21T10:18:28.906Z,88.60
2018-05-21T10:20:56.351Z,79.80
2018-05-21T10:23:23.798Z,81.70
2018-05-21T10:25:51.242Z,78.30
2018-05-21T10:28:18.701Z,71.90
2018-05-21T10:30:46.140Z,73.60
2018-05-21T10:33:14.362Z,78.10
2018-05-21T10:35:41.804Z,77.90
2018-05-21T10:38:09.251Z,79.00
2018-05-21T10:40:36.691Z,78.60
2018-05-21T10:43:04.910Z,77.80
2018-05-21T10:45:32.352Z,77.60
2018-05-21T10:47:59.814Z,74.90
2018-05-21T10:50:27.269Z,71.40
2018-05-21T10:52:54.713Z,65.80
2018-05-21T10:55:22.179Z,64.60
2018-05-21T10:57:49.638Z,61.70
2018-05-21T11:00:17.071Z,67.10
2018-05-21T11:02:44.532Z,73.30
2018-05-21T11:05:12.738Z,75.20
2018-05-21T11:07:40.194Z,75.60
2018-05-21T11:10:07.641Z,70.80
2018-05-21T11:12:35.081Z,70.10
2018-05-21T11:15:02.534Z,69.30
2018-05-21T11:17:29.993Z,71.90
2018-05-21T11:19:57.449Z,72.80
2018-05-21T11:22:25.659Z,70.30
2018-05-21T11:24:53.869Z,70.00
2018-05-21T11:27:21.320Z,69.60
2018-05-21T11:29:48.778Z,71.30
2018-05-21T11:32:16.213Z,68.50
2018-05-21T11:34:43.662Z,70.90
2018-05-21T11:37:11.105Z,71.70
2018-05-21T11:39:38.558Z,69.90
2018-05-21T11:42:06.009Z,69.90
2018-05-21T11:44:33.461Z,70.00
2018-05-21T11:47:00.911Z,67.80
2018-05-21T11:49:29.181Z,75.90
2018-05-21T11:51:57.392Z,71.10
2018-05-21T11:54:24.843Z,71.10
2018-05-21T11:56:52.280Z,70.20
2018-05-21T11:59:19.748Z,69.10
2018-05-21T12:01:47.187Z,66.70
2018-05-21T12:04:15.435Z,68.70
2018-05-21T12:06:42.883Z,68.70
2018-05-21T12:09:10.341Z,74.90
2018-05-21T12:11:37.795Z,71.40
2018-05-21T12:14:05.250Z,73.50
2018-05-21T12:16:32.709Z,79.30
2018-05-21T12:19:00.163Z,79.40
2018-05-21T12:21:27.592Z,77.00
2018-05-21T12:23:55.042Z,76.20
2018-05-21T12:26:22.474Z,78.20
2018-05-21T12:28:50.779Z,77.00
2018-05-21T12:31:18.166Z,76.80
2018-05-21T12:33:45.606Z,76.20
2018-05-21T12:36:13.049Z,76.40
2018-05-21T12:38:40.492Z,77.80
2018-05-21T12:41:07.928Z,71.10
2018-05-21T12:43:36.128Z,72.70
2018-05-21T12:46:03.581Z,73.60
2018-05-21T12:48:31.018Z,75.80
2018-05-21T12:50:59.249Z,73.40
2018-05-21T12:53:26.715Z,73.10
2018-05-21T12:55:54.160Z,71.30
2018-05-21T12:58:21.600Z,74.20
2018-05-21T13:00:49.051Z,72.40
2018-05-21T13:03:16.490Z,75.00
2018-05-21T13:05:43.937Z,73.80
2018-05-21T13:08:12.142Z,74.80
2018-05-21T13:10:39.586Z,74.60
2018-05-21T13:13:07.038Z,71.60
2018-05-21T13:15:34.489Z,72.20
2018-05-21T13:18:01.939Z,69.60
2018-05-21T13:20:30.175Z,71.80
2018-05-21T13:22:57.620Z,72.20
2018-05-21T13:25:25.085Z,76.40
2018-05-21T13:27:52.522Z,79.60
2018-05-21T13:30:19.973Z,81.10
2018-05-21T13:32:47.426Z,69.90
2018-05-21T13:35:14.888Z,71.80
2018-05-21T13:37:42.321Z,65.60
2018-05-21T13:40:09.800Z,69.80
2018-05-21T13:42:37.231Z,76.50
2018-05-21T13:45:05.459Z,73.40
2018-05-21T13:47:32.913Z,73.20
2018-05-21T13:50:00.377Z,74.50
2018-05-21T13:52:27.885Z,73.20
2018-05-21T13:54:55.285Z,74.50
2018-05-21T13:57:22.739Z,71.60
2018-05-21T13:59:50.201Z,72.90
2018-05-21T14:02:17.649Z,74.70
2018-05-21T14:04:45.113Z,72.90
2018-05-21T14:07:12.630Z,72.50
2018-05-21T14:09:40.069Z,68.00
2018-05-21T14:12:08.289Z,70.40
2018-05-21T14:14:35.717Z,70.60
2018-05-21T14:17:03.165Z,71.40
2018-05-21T14:19:31.407Z,72.50
2018-05-21T14:21:58.866Z,72.80
2018-05-21T14:24:26.308Z,70.60
2018-05-21T14:26:53.772Z,70.00
2018-05-21T14:29:21.215Z,67.50
2018-05-21T14:31:48.677Z,68.60
2018-05-21T14:34:16.130Z,74.80
2018-05-21T14:36:43.570Z,71.10
2018-05-21T14:39:11.006Z,70.50
2018-05-21T14:41:38.453Z,73.60
2018-05-21T14:44:06.675Z,70.70
2018-05-21T14:46:34.135Z,70.70
2018-05-21T14:49:01.578Z,68.90
2018-05-21T14:51:29.044Z,68.20
2018-05-21T14:53:56.477Z,72.40
2018-05-21T14:56:23.926Z,77.90
2018-05-21T14:58:51.365Z,77.50
2018-05-21T15:01:18.833Z,73.90
2018-05-21T15:03:47.030Z,70.10
2018-05-21T15:06:14.489Z,70.00
2018-05-21T15:08:41.925Z,70.50
2018-05-21T15:11:09.369Z,70.90
2018-05-21T15:13:37.598Z,71.70
2018-05-21T15:16:05.112Z,71.70
2018-05-21T15:18:32.508Z,71.20
2018-05-21T15:20:59.964Z,69.90
2018-05-21T15:23:27.416Z,72.40
2018-05-21T15:25:54.881Z,71.90
2018-05-21T15:28:22.321Z,72.10
2018-05-21T15:30:49.753Z,73.90
2018-05-21T15:33:18.019Z,74.70
2018-05-21T15:35:45.502Z,74.90
2018-05-21T15:38:12.942Z,74.40
2018-05-21T15:40:41.160Z,76.70
2018-05-21T15:43:08.613Z,76.60
2018-05-21T15:45:36.055Z,78.90
2018-05-21T15:48:03.501Z,76.20
2018-05-21T15:50:30.933Z,73.60
2018-05-21T15:52:59.175Z,73.50
2018-05-21T15:55:26.614Z,73.50
2018-05-21T15:57:54.083Z,76.10
2018-05-21T16:00:21.531Z,76.70
2018-05-21T16:02:48.987Z,77.60
2018-05-21T16:05:16.416Z,75.90
2018-05-21T16:07:43.861Z,74.40
2018-05-21T16:10:12.073Z,79.20
2018-05-21T16:12:39.557Z,79.20
2018-05-21T16:15:06.986Z,78.60
2018-05-21T16:17:34.443Z,76.20
2018-05-21T16:20:01.902Z,75.80
2018-05-21T16:22:29.358Z,77.90
2018-05-21T16:24:56.814Z,80.30
2018-05-21T16:27:24.271Z,79.30
2018-05-21T16:29:51.727Z,77.00
2018-05-21T16:32:19.183Z,79.10
2018-05-21T16:34:46.617Z,80.50
2018-05-21T16:37:14.097Z,74.50
2018-05-21T16:39:41.537Z,72.50
2018-05-21T16:42:08.989Z,73.40
2018-05-21T16:44:36.454Z,73.50
2018-05-21T16:47:03.900Z,73.00
2018-05-21T16:49:32.116Z,72.10
2018-05-21T16:51:59.557Z,71.90
2018-05-21T16:54:27.024Z,71.10
2018-05-21T16:56:54.453Z,71.50
2018-05-21T16:59:21.923Z,72.10
2018-05-21T17:01:49.361Z,72.90
2018-05-21T17:04:16.818Z,73.00
2018-05-21T17:06:44.262Z,73.50
2018-05-21T17:09:12.494Z,73.70
2018-05-21T17:11:39.937Z,73.70
2018-05-21T17:14:07.387Z,75.20
2018-05-21T17:16:34.843Z,75.60
2018-05-21T17:19:02.296Z,74.50
2018-05-21T17:21:29.758Z,74.30
2018-05-21T17:23:57.214Z,73.70
2018-05-21T17:26:24.671Z,74.00
2018-05-21T17:28:52.112Z,75.90
2018-05-21T17:31:19.626Z,76.10
2018-05-21T17:33:47.010Z,78.10
2018-05-21T17:36:15.306Z,78.30
2018-05-21T17:38:42.730Z,78.30
2018-05-21T17:41:10.184Z,79.20
2018-05-21T17:43:37.642Z,81.20
2018-05-21T17:46:05.090Z,84.10
2018-05-21T17:48:32.546Z,85.20
2018-05-21T17:51:00.017Z,86.40
2018-05-21T17:53:27.471Z,86.70
2018-05-21T17:55:54.929Z,87.10
2018-05-21T17:58:22.405Z,88.60
2018-05-21T18:00:50.618Z,87.30
2018-05-21T18:03:18.115Z,87.20
2018-05-21T18:05:45.518Z,90.00
2018-05-21T18:08:12.974Z,91.30
2018-05-21T18:10:40.431Z,92.40
2018-05-21T18:13:07.875Z,91.90
2018-05-21T18:15:35.325Z,92.30
2018-05-21T18:18:03.542Z,94.50
2018-05-21T18:20:30.987Z,94.50
2018-05-21T18:22:58.438Z,95.00
2018-05-21T18:25:25.869Z,95.40
2018-05-21T18:27:53.317Z,95.60
2018-05-21T18:30:21.529Z,96.60
2018-05-21T18:32:48.997Z,96.60
2018-05-21T18:35:16.459Z,97.40
2018-05-21T18:37:43.905Z,97.50
2018-05-21T18:40:12.125Z,99.30
2018-05-21T18:42:39.600Z,99.30
2018-05-21T18:45:07.029Z,98.20
2018-05-21T18:47:34.491Z,99.90
2018-05-21T18:50:01.946Z,99.30
2018-05-21T18:52:29.390Z,99.30
2018-05-21T18:54:56.859Z,99.40
2018-05-21T18:57:24.324Z,99.80
2018-05-21T18:59:51.863Z,98.20
2018-05-21T19:02:19.234Z,98.10
2018-05-21T19:04:46.685Z,98.70
2018-05-21T19:07:14.125Z,99.70
2018-05-21T19:09:41.598Z,99.80
2018-05-21T19:12:09.038Z,99.90
2018-05-21T19:14:36.508Z,99.90
2018-05-21T19:17:03.953Z,99.90
2018-05-21T19:19:31.434Z,99.90
2018-05-21T19:21:58.865Z,99.90
2018-05-21T19:24:26.323Z,99.90
2018-05-21T19:26:53.768Z,99.90
2018-05-21T19:29:21.231Z,99.90
2018-05-21T19:31:48.691Z,99.90
2018-05-21T19:34:16.171Z,99.90
2018-05-21T19:36:43.637Z,99.90
2018-05-21T19:39:11.080Z,99.90
2018-05-21T19:41:38.531Z,99.90
2018-05-21T19:44:05.965Z,99.90
2018-05-21T19:46:33.478Z,99.90
2018-05-21T19:49:00.859Z,99.90
2018-05-21T19:51:28.312Z,99.90
2018-05-21T19:53:55.760Z,99.90
2018-05-21T19:56:23.232Z,99.90
2018-05-21T19:58:50.692Z,99.90
2018-05-21T20:01:18.143Z,99.90
2018-05-21T20:03:45.610Z,99.90
2018-05-21T20:06:13.862Z,99.90
2018-05-21T20:08:41.290Z,99.90
2018-05-21T20:11:08.759Z,99.90
2018-05-21T20:13:36.216Z,99.90
2018-05-21T20:16:03.667Z,99.90
2018-05-21T20:18:33.018Z,99.90
2018-05-21T20:21:00.510Z,99.90
2018-05-21T20:23:27.970Z,99.90
2018-05-21T20:25:55.434Z,99.90
2018-05-21T20:28:22.892Z,99.90
2018-05-21T20:30:50.360Z,99.90
2018-05-21T20:33:17.802Z,99.90
2018-05-21T20:35:45.258Z,99.90
2018-05-21T20:38:12.706Z,99.90
2018-05-21T20:40:40.165Z,99.90
2018-05-21T20:43:07.606Z,99.90
2018-05-21T20:45:35.085Z,99.90
2018-05-21T20:48:02.522Z,99.90
2018-05-21T20:50:29.981Z,99.90
2018-05-21T20:52:57.451Z,99.90
2018-05-21T20:55:26.317Z,99.90
2018-05-21T20:57:53.779Z,99.90
2018-05-21T21:00:21.224Z,99.90
2018-05-21T21:02:48.689Z,99.90
2018-05-21T21:05:16.154Z,99.90
2018-05-21T21:07:43.628Z,99.90
2018-05-21T21:10:11.087Z,99.90
2018-05-21T21:12:38.541Z,99.90
2018-05-21T21:15:06.007Z,99.90
2018-05-21T21:17:33.453Z,99.90
2018-05-21T21:20:00.902Z,99.90
2018-05-21T21:22:28.370Z,99.90
2018-05-21T21:24:55.825Z,99.90
2018-05-21T21:27:23.285Z,99.90
2018-05-21T21:29:50.760Z,99.90
2018-05-21T21:32:18.297Z,99.90
2018-05-21T21:34:45.663Z,99.90
2018-05-21T21:37:13.130Z,99.90
2018-05-21T21:39:40.570Z,99.90
2018-05-21T21:42:08.025Z,99.90
2018-05-21T21:44:35.496Z,99.90
2018-05-21T21:47:02.947Z,99.90
2018-05-21T21:49:30.381Z,99.90
2018-05-21T21:51:57.863Z,99.90
2018-05-21T21:54:25.339Z,99.90
2018-05-21T21:56:52.808Z,99.90
2018-05-21T21:59:20.254Z,99.90
2018-05-21T22:01:47.714Z,99.90
2018-05-21T22:04:15.174Z,99.90
2018-05-21T22:06:42.635Z,99.90
2018-05-21T22:09:10.082Z,99.90
2018-05-21T22:11:37.556Z,99.90
2018-05-21T22:14:05.015Z,99.90
2018-05-21T22:16:33.244Z,99.90
2018-05-21T22:19:00.684Z,99.90
2018-05-21T22:21:28.138Z,99.90
2018-05-21T22:23:55.573Z,99.90
2018-05-21T22:26:23.022Z,99.90
2018-05-21T22:28:50.478Z,99.90
2018-05-21T22:31:18.705Z,99.90
2018-05-21T22:33:46.186Z,99.90
2018-05-21T22:36:13.625Z,99.90
2018-05-21T22:38:41.087Z,99.90
2018-05-21T22:41:08.540Z,99.90
2018-05-21T22:43:36.002Z,99.90
2018-05-21T22:46:03.445Z,99.90
2018-05-21T22:48:30.894Z,99.90
2018-05-21T22:50:58.331Z,99.90
2018-05-21T22:53:25.784Z,99.90
2018-05-21T22:55:53.244Z,99.90
2018-05-21T22:58:20.699Z,99.90
2018-05-21T23:00:48.151Z,99.90
2018-05-21T23:03:15.606Z,99.90
2018-05-21T23:05:43.053Z,99.90
2018-05-21T23:08:11.317Z,99.90
2018-05-21T23:10:38.769Z,99.90
2018-05-21T23:13:06.222Z,99.90
2018-05-21T23:15:33.680Z,99.90
2018-05-21T23:18:01.128Z,99.90
2018-05-21T23:20:28.628Z,99.90
2018-05-21T23:22:56.853Z,99.90
2018-05-21T23:25:24.339Z,99.90
2018-05-21T23:27:51.822Z,99.90
2018-05-21T23:30:19.292Z,99.90
2018-05-21T23:32:46.782Z,99.90
2018-05-21T23:35:14.226Z,99.90
2018-05-21T23:37:41.703Z,99.90
2018-05-21T23:40:09.162Z,99.90
2018-05-21T23:42:36.637Z,99.90
2018-05-21T23:45:04.891Z,99.90
2018-05-21T23:47:32.372Z,99.90
2018-05-21T23:49:59.834Z,99.90
2018-05-21T23:52:28.072Z,99.90
2018-05-21T23:54:55.539Z,99.90
2018-05-21T23:57:23.023Z,99.90
2018-05-21T23:59:51.250Z,99.90
